createdAt,value
2018-02-08T00:01:27.795Z,86.67
2018-02-08T00:03:55.403Z,86.19
2018-02-08T00:06:22.992Z,87.32
2018-02-08T00:08:50.693Z,85.70
2018-02-08T00:11:18.279Z,85.61
2018-02-08T00:13:45.878Z,86.74
2018-02-08T00:16:13.455Z,87.22
2018-02-08T00:18:41.070Z,86.93
2018-02-08T00:21:08.658Z,86.36
2018-02-08T00:23:36.245Z,85.78
2018-02-08T00:26:04.609Z,87.28
2018-02-08T00:28:32.186Z,87.66
2018-02-08T00:30:59.770Z,87.73
2018-02-08T00:33:27.359Z,86.68
2018-02-08T00:35:55.031Z,86.38
2018-02-08T00:38:22.620Z,87.58
2018-02-08T00:40:50.242Z,87.30
2018-02-08T00:43:17.961Z,86.89
2018-02-08T00:45:45.590Z,87.67
2018-02-08T00:48:13.177Z,88.06
2018-02-08T00:50:40.758Z,87.93
2018-02-08T00:53:08.348Z,88.51
2018-02-08T00:55:35.934Z,88.14
2018-02-08T00:58:03.590Z,89.26
2018-02-08T01:00:31.983Z,88.05
2018-02-08T01:02:59.548Z,88.30
2018-02-08T01:05:27.130Z,89.00
2018-02-08T01:07:54.718Z,89.22
2018-02-08T01:10:22.418Z,89.10
2018-02-08T01:12:50.003Z,88.65
2018-02-08T01:15:17.637Z,88.20
2018-02-08T01:17:46.127Z,90.51
2018-02-08T01:20:14.311Z,90.35
2018-02-08T01:22:41.894Z,88.87
2018-02-08T01:25:09.482Z,88.65
2018-02-08T01:27:37.070Z,89.43
2018-02-08T01:30:04.675Z,89.79
2018-02-08T01:32:33.770Z,89.02
2018-02-08T01:35:01.438Z,89.38
2018-02-08T01:37:29.030Z,88.91
2018-02-08T01:39:56.609Z,88.06
2018-02-08T01:42:25.098Z,87.55
2018-02-08T01:44:52.775Z,87.32
2018-02-08T01:47:20.400Z,87.36
2018-02-08T01:49:49.258Z,87.87
2018-02-08T01:52:17.650Z,89.25
2018-02-08T01:54:46.127Z,88.30
2018-02-08T01:57:13.851Z,88.21
2018-02-08T01:59:42.318Z,89.21
2018-02-08T02:02:09.906Z,89.98
2018-02-08T02:04:37.491Z,90.72
2018-02-08T02:07:05.170Z,90.02
2018-02-08T02:09:32.818Z,90.55
2018-02-08T02:12:00.402Z,90.19
2018-02-08T02:14:27.998Z,90.41
2018-02-08T02:16:55.590Z,89.89
2018-02-08T02:19:23.178Z,89.37
2018-02-08T02:21:50.767Z,90.65
2018-02-08T02:24:18.358Z,89.51
2018-02-08T02:26:46.016Z,90.41
2018-02-08T02:29:14.498Z,90.40
2018-02-08T02:31:42.089Z,89.45
2018-02-08T02:34:09.814Z,90.58
2018-02-08T02:36:37.406Z,91.91
2018-02-08T02:39:05.026Z,89.42
2018-02-08T02:41:32.658Z,89.56
2018-02-08T02:44:00.308Z,90.01
2018-02-08T02:46:27.903Z,91.35
2018-02-08T02:48:55.491Z,91.81
2018-02-08T02:51:23.123Z,91.92
2018-02-08T02:53:50.719Z,92.03
2018-02-08T02:56:18.312Z,92.74
2018-02-08T02:58:45.900Z,92.69
2018-02-08T03:01:13.535Z,90.92
2018-02-08T03:03:41.126Z,89.90
2018-02-08T03:06:08.713Z,90.01
2018-02-08T03:08:36.306Z,89.85
2018-02-08T03:11:03.899Z,90.00
2018-02-08T03:13:31.482Z,91.01
2018-02-08T03:15:59.072Z,89.97
2018-02-08T03:18:26.667Z,91.74
2018-02-08T03:20:54.259Z,92.04
2018-02-08T03:23:21.850Z,92.27
2018-02-08T03:25:49.439Z,92.08
2018-02-08T03:28:17.050Z,92.14
2018-02-08T03:30:48.135Z,92.12
2018-02-08T03:33:15.728Z,91.67
2018-02-08T03:35:43.316Z,91.15
2018-02-08T03:38:10.907Z,91.71
2018-02-08T03:40:38.535Z,91.79
2018-02-08T03:43:06.132Z,91.52
2018-02-08T03:45:33.725Z,92.68
2018-02-08T03:48:01.315Z,92.78
2018-02-08T03:50:28.905Z,92.60
2018-02-08T03:52:56.490Z,93.21
2018-02-08T03:55:24.080Z,92.85
2018-02-08T03:57:51.714Z,92.76
2018-02-08T04:00:19.306Z,91.90
2018-02-08T04:02:46.901Z,92.39
2018-02-08T04:05:14.487Z,93.35
2018-02-08T04:07:42.075Z,93.86
2018-02-08T04:10:09.663Z,93.69
2018-02-08T04:12:37.252Z,93.75
2018-02-08T04:15:04.839Z,94.17
2018-02-08T04:17:32.463Z,94.03
2018-02-08T04:20:00.064Z,94.13
2018-02-08T04:22:27.655Z,93.73
2018-02-08T04:24:55.259Z,94.04
2018-02-08T04:27:22.856Z,92.43
2018-02-08T04:29:50.448Z,93.21
2018-02-08T04:32:18.087Z,92.40
2018-02-08T04:34:45.675Z,93.21
2018-02-08T04:37:13.316Z,93.29
2018-02-08T04:39:52.569Z,93.17
2018-02-08T04:45:32.897Z,91.93
2018-02-08T04:48:08.400Z,92.68
2018-02-08T04:50:35.997Z,93.45
2018-02-08T04:53:03.588Z,93.15
2018-02-08T04:55:31.214Z,92.88
2018-02-08T04:57:58.801Z,92.47
2018-02-08T05:00:26.559Z,92.53
2018-02-08T05:02:54.147Z,93.80
2018-02-08T05:05:21.773Z,93.95
2018-02-08T05:07:49.365Z,94.68
2018-02-08T05:10:17.014Z,94.57
2018-02-08T05:12:44.666Z,94.22
2018-02-08T05:15:12.254Z,94.17
2018-02-08T05:17:39.843Z,93.58
2018-02-08T05:20:07.495Z,93.53
2018-02-08T05:22:35.101Z,91.43
2018-02-08T05:25:02.707Z,91.53
2018-02-08T05:27:30.299Z,92.17
2018-02-08T05:29:58.033Z,92.11
2018-02-08T05:32:25.627Z,90.70
2018-02-08T05:34:53.250Z,91.50
2018-02-08T05:37:20.845Z,92.00
2018-02-08T05:39:48.854Z,92.31
2018-02-08T05:42:16.446Z,92.61
2018-02-08T05:44:44.070Z,92.72
2018-02-08T05:47:11.700Z,92.87
2018-02-08T05:49:39.282Z,92.52
2018-02-08T05:52:06.903Z,92.36
2018-02-08T05:54:34.491Z,92.17
2018-02-08T05:57:02.193Z,92.52
2018-02-08T05:59:29.783Z,90.55
2018-02-08T06:01:57.458Z,91.32
2018-02-08T06:04:25.081Z,91.37
2018-02-08T06:06:52.664Z,90.85
2018-02-08T06:09:20.291Z,90.12
2018-02-08T06:11:47.918Z,89.44
2018-02-08T06:14:15.506Z,91.27
2018-02-08T06:16:43.186Z,91.74
2018-02-08T06:19:10.772Z,92.59
2018-02-08T06:21:38.403Z,92.76
2018-02-08T06:24:05.996Z,92.77
2018-02-08T06:26:33.591Z,93.12
2018-02-08T06:29:01.186Z,93.57
2018-02-08T06:31:28.783Z,93.77
2018-02-08T06:33:56.407Z,93.76
2018-02-08T06:36:24.007Z,92.18
2018-02-08T06:38:51.631Z,91.72
2018-02-08T06:41:19.305Z,91.45
2018-02-08T06:43:46.962Z,91.61
2018-02-08T06:46:14.626Z,91.62
2018-02-08T06:48:42.291Z,91.98
2018-02-08T06:51:09.910Z,92.58
2018-02-08T06:53:37.535Z,92.68
2018-02-08T06:56:05.127Z,92.89
2018-02-08T06:58:32.989Z,92.74
2018-02-08T07:01:00.579Z,92.97
2018-02-08T07:03:28.214Z,92.90
2018-02-08T07:05:55.810Z,92.64
2018-02-08T07:08:23.500Z,92.31
2018-02-08T07:10:51.154Z,91.99
2018-02-08T07:13:18.750Z,91.98
2018-02-08T07:15:47.047Z,91.91
2018-02-08T07:18:14.635Z,91.90
2018-02-08T07:20:42.236Z,91.96
2018-02-08T07:23:09.827Z,91.89
2018-02-08T07:25:37.590Z,91.97
2018-02-08T07:28:05.241Z,92.24
2018-02-08T07:30:32.871Z,92.25
2018-02-08T07:33:00.474Z,92.12
2018-02-08T07:35:28.208Z,92.22
2018-02-08T07:37:55.832Z,91.76
2018-02-08T07:40:23.419Z,90.75
2018-02-08T07:42:51.018Z,89.58
2018-02-08T07:45:18.603Z,89.25
2018-02-08T07:47:46.188Z,89.67
2018-02-08T07:50:13.795Z,89.99
2018-02-08T07:52:41.472Z,90.75
2018-02-08T07:55:09.136Z,91.19
2018-02-08T07:57:36.722Z,91.28
2018-02-08T08:00:04.315Z,90.85
2018-02-08T08:02:31.975Z,89.41
2018-02-08T08:04:59.571Z,89.18
2018-02-08T08:07:27.163Z,89.68
2018-02-08T08:09:54.759Z,89.71
2018-02-08T08:12:22.351Z,90.11
2018-02-08T08:14:49.988Z,90.44
2018-02-08T08:17:17.590Z,90.08
2018-02-08T08:19:45.212Z,89.81
2018-02-08T08:22:12.844Z,89.57
2018-02-08T08:24:40.436Z,88.75
2018-02-08T08:27:08.095Z,88.49
2018-02-08T08:29:35.688Z,88.66
2018-02-08T08:32:03.283Z,88.17
2018-02-08T08:34:30.985Z,87.11
2018-02-08T08:36:58.572Z,87.10
2018-02-08T08:39:26.167Z,86.85
2018-02-08T08:41:53.760Z,84.19
2018-02-08T08:44:21.358Z,84.63
2018-02-08T08:46:48.954Z,82.60
2018-02-08T08:49:16.546Z,83.99
2018-02-08T08:51:44.212Z,83.57
2018-02-08T08:54:11.802Z,83.24
2018-02-08T08:56:39.394Z,82.18
2018-02-08T08:59:07.144Z,82.65
2018-02-08T09:01:34.774Z,83.35
2018-02-08T09:04:02.406Z,82.55
2018-02-08T09:06:30.007Z,81.23
2018-02-08T09:08:57.637Z,82.54
2018-02-08T09:11:25.869Z,82.38
2018-02-08T09:13:53.455Z,81.03
2018-02-08T09:16:21.047Z,81.46
2018-02-08T09:18:48.711Z,81.36
2018-02-08T09:21:16.420Z,81.59
2018-02-08T09:23:44.015Z,79.11
2018-02-08T09:26:11.696Z,77.43
2018-02-08T09:28:39.292Z,78.87
2018-02-08T09:31:06.956Z,77.43
2018-02-08T09:33:34.616Z,78.23
2018-02-08T09:36:02.923Z,78.43
2018-02-08T09:38:30.555Z,76.76
2018-02-08T09:40:58.183Z,77.16
2018-02-08T09:43:25.854Z,76.29
2018-02-08T09:45:53.479Z,75.24
2018-02-08T09:48:21.103Z,71.57
2018-02-08T09:50:48.740Z,70.23
2018-02-08T09:53:16.349Z,74.26
2018-02-08T09:55:44.097Z,75.76
2018-02-08T09:58:11.682Z,75.61
2018-02-08T10:00:39.276Z,72.55
2018-02-08T10:03:06.908Z,71.13
2018-02-08T10:05:34.607Z,69.96
2018-02-08T10:08:02.301Z,70.15
2018-02-08T10:10:29.931Z,70.62
2018-02-08T10:12:57.523Z,70.40
2018-02-08T10:15:25.151Z,68.70
2018-02-08T10:17:52.822Z,66.39
2018-02-08T10:20:20.451Z,67.36
2018-02-08T10:22:48.075Z,69.38
2018-02-08T10:25:15.738Z,67.62
2018-02-08T10:27:43.336Z,67.86
2018-02-08T10:30:11.038Z,69.56
2018-02-08T10:32:38.623Z,67.17
2018-02-08T10:35:06.259Z,67.52
2018-02-08T10:37:33.835Z,64.75
2018-02-08T10:40:01.427Z,65.38
2018-02-08T10:42:29.014Z,68.75
2018-02-08T10:44:56.635Z,68.02
2018-02-08T10:47:24.218Z,68.85
2018-02-08T10:49:51.806Z,69.39
2018-02-08T10:52:19.538Z,69.51
2018-02-08T10:54:47.108Z,67.06
2018-02-08T10:57:14.707Z,65.95
2018-02-08T10:59:42.320Z,65.17
2018-02-08T11:02:09.929Z,63.63
2018-02-08T11:04:37.513Z,64.56
2018-02-08T11:07:05.091Z,60.44
2018-02-08T11:09:32.718Z,59.84
2018-02-08T11:12:00.302Z,60.91
2018-02-08T11:14:27.888Z,60.43
2018-02-08T11:16:55.467Z,57.92
2018-02-08T11:19:23.054Z,59.74
2018-02-08T11:21:50.723Z,64.79
2018-02-08T11:24:18.303Z,59.67
2018-02-08T11:26:45.946Z,60.77
2018-02-08T11:29:13.573Z,61.09
2018-02-08T11:31:41.159Z,62.95
2018-02-08T11:34:08.784Z,61.21
2018-02-08T11:36:36.390Z,57.63
2018-02-08T11:39:03.984Z,56.61
2018-02-08T11:41:31.624Z,56.64
2018-02-08T11:43:59.214Z,58.97
2018-02-08T11:46:26.839Z,58.57
2018-02-08T11:48:54.418Z,60.46
2018-02-08T11:51:22.048Z,57.41
2018-02-08T11:53:49.728Z,57.59
2018-02-08T11:56:17.400Z,57.69
2018-02-08T11:58:44.983Z,58.65
2018-02-08T12:01:12.619Z,58.42
2018-02-08T12:03:40.193Z,57.84
2018-02-08T12:06:07.771Z,58.13
2018-02-08T12:08:35.387Z,55.12
2018-02-08T12:11:02.976Z,58.62
2018-02-08T12:13:30.599Z,56.51
2018-02-08T12:15:58.187Z,57.96
2018-02-08T12:18:25.768Z,59.18
2018-02-08T12:20:53.346Z,58.91
2018-02-08T12:23:20.927Z,57.66
2018-02-08T12:25:48.511Z,58.22
2018-02-08T12:28:16.884Z,57.69
2018-02-08T12:30:44.463Z,55.94
2018-02-08T12:33:12.132Z,53.68
2018-02-08T12:35:39.791Z,55.46
2018-02-08T12:38:07.455Z,56.14
2018-02-08T12:40:35.075Z,56.80
2018-02-08T12:43:02.656Z,54.35
2018-02-08T12:45:30.236Z,55.63
2018-02-08T12:47:57.828Z,56.33
2018-02-08T12:50:25.496Z,54.36
2018-02-08T12:52:53.082Z,53.93
2018-02-08T12:55:20.659Z,54.39
2018-02-08T12:57:48.240Z,54.23
2018-02-08T13:00:15.859Z,57.67
2018-02-08T13:02:43.508Z,55.47
2018-02-08T13:05:11.130Z,55.15
2018-02-08T13:07:38.743Z,56.58
2018-02-08T13:10:06.371Z,54.93
2018-02-08T13:12:33.947Z,57.71
2018-02-08T13:15:01.528Z,57.93
2018-02-08T13:17:29.138Z,57.57
2018-02-08T13:19:56.749Z,55.18
2018-02-08T13:22:24.335Z,53.43
2018-02-08T13:24:51.915Z,54.64
2018-02-08T13:27:19.578Z,55.44
2018-02-08T13:29:47.150Z,56.17
2018-02-08T13:32:17.287Z,57.11
2018-02-08T13:34:44.878Z,54.35
2018-02-08T13:37:12.486Z,53.31
2018-02-08T13:39:41.037Z,53.82
2018-02-08T13:42:10.531Z,52.17
2018-02-08T13:44:38.123Z,52.57
2018-02-08T13:50:15.162Z,51.50
2018-02-08T13:55:48.398Z,52.92
2018-02-08T13:58:21.587Z,54.48
2018-02-08T14:00:49.492Z,51.82
2018-02-08T14:03:17.148Z,49.82
2018-02-08T14:05:44.731Z,54.02
2018-02-08T14:08:12.379Z,50.58
2018-02-08T14:10:39.994Z,51.62
2018-02-08T14:13:07.677Z,49.67
2018-02-08T14:15:35.288Z,51.58
2018-02-08T14:18:02.875Z,50.66
2018-02-08T14:20:30.487Z,50.85
2018-02-08T14:22:58.066Z,50.55
2018-02-08T14:25:25.682Z,51.11
2018-02-08T14:27:53.299Z,52.32
2018-02-08T14:30:20.966Z,52.83
2018-02-08T14:32:48.627Z,51.42
2018-02-08T14:35:16.288Z,55.50
2018-02-08T14:37:43.912Z,51.35
2018-02-08T14:40:11.548Z,52.49
2018-02-08T14:42:39.211Z,53.31
2018-02-08T14:45:06.825Z,51.29
2018-02-08T14:47:34.557Z,52.12
2018-02-08T14:50:02.135Z,51.65
2018-02-08T14:52:29.755Z,53.66
2018-02-08T14:54:57.332Z,51.72
2018-02-08T14:57:24.951Z,51.97
2018-02-08T14:59:52.586Z,52.36
2018-02-08T15:02:20.280Z,51.75
2018-02-08T15:04:47.939Z,51.99
2018-02-08T15:07:15.554Z,52.76
2018-02-08T15:09:43.167Z,52.78
2018-02-08T15:12:10.827Z,53.93
2018-02-08T15:14:38.459Z,55.54
2018-02-08T15:17:06.078Z,58.57
2018-02-08T15:19:33.712Z,56.72
2018-02-08T15:22:01.292Z,56.35
2018-02-08T15:24:29.150Z,58.39
2018-02-08T15:26:56.855Z,59.58
2018-02-08T15:29:24.435Z,59.69
2018-02-08T15:31:52.011Z,58.99
2018-02-08T15:34:19.594Z,58.26
2018-02-08T15:36:47.282Z,59.22
2018-02-08T15:39:14.910Z,58.73
2018-02-08T15:41:42.489Z,58.90
2018-02-08T15:44:10.130Z,59.44
2018-02-08T15:46:37.728Z,59.60
2018-02-08T15:49:05.359Z,59.55
2018-02-08T15:51:33.023Z,60.38
2018-02-08T15:54:00.635Z,60.64
2018-02-08T15:56:28.283Z,60.82
2018-02-08T15:58:55.872Z,60.80
2018-02-08T16:01:23.579Z,60.69
2018-02-08T16:03:51.182Z,61.43
2018-02-08T16:06:18.771Z,61.87
2018-02-08T16:08:46.364Z,62.13
2018-02-08T16:11:13.983Z,61.96
2018-02-08T16:13:41.571Z,62.41
2018-02-08T16:16:09.162Z,62.54
2018-02-08T16:18:36.751Z,63.78
2018-02-08T16:21:04.339Z,64.99
2018-02-08T16:23:31.931Z,69.72
2018-02-08T16:25:59.550Z,68.50
2018-02-08T16:28:27.136Z,66.94
2018-02-08T16:30:54.736Z,66.18
2018-02-08T16:33:22.366Z,67.64
2018-02-08T16:35:49.958Z,67.46
2018-02-08T16:38:17.645Z,68.94
2018-02-08T16:40:45.274Z,66.59
2018-02-08T16:43:12.919Z,67.85
2018-02-08T16:45:40.552Z,68.02
2018-02-08T16:48:08.140Z,67.81
2018-02-08T16:50:35.726Z,68.23
2018-02-08T16:53:03.320Z,70.67
2018-02-08T16:55:31.034Z,70.82
2018-02-08T16:57:58.628Z,68.94
2018-02-08T17:00:26.214Z,68.96
2018-02-08T17:02:53.803Z,72.99
2018-02-08T17:05:21.528Z,71.70
2018-02-08T17:07:49.179Z,70.08
2018-02-08T17:10:16.771Z,68.91
2018-02-08T17:12:44.366Z,68.89
2018-02-08T17:15:11.960Z,73.02
2018-02-08T17:17:39.595Z,76.85
2018-02-08T17:20:07.182Z,74.76
2018-02-08T17:22:34.773Z,75.61
2018-02-08T17:25:02.364Z,76.76
2018-02-08T17:27:29.956Z,75.35
2018-02-08T17:29:57.637Z,76.80
2018-02-08T17:32:25.222Z,77.56
2018-02-08T17:34:52.843Z,77.42
2018-02-08T17:37:20.429Z,79.07
2018-02-08T17:39:48.018Z,77.89
2018-02-08T17:42:15.599Z,79.39
2018-02-08T17:44:43.232Z,79.43
2018-02-08T17:47:10.832Z,80.42
2018-02-08T17:49:38.426Z,80.31
2018-02-08T17:52:06.008Z,80.49
2018-02-08T17:54:33.595Z,80.26
2018-02-08T17:57:01.183Z,79.79
2018-02-08T17:59:28.777Z,78.94
2018-02-08T18:01:56.382Z,81.23
2018-02-08T18:04:23.971Z,81.59
2018-02-08T18:06:51.564Z,81.48
2018-02-08T18:09:19.151Z,81.97
2018-02-08T18:11:46.734Z,81.50
2018-02-08T18:14:14.378Z,83.07
2018-02-08T18:16:42.990Z,82.75
2018-02-08T18:19:10.623Z,84.00
2018-02-08T18:21:38.210Z,84.73
2018-02-08T18:24:05.803Z,84.91
2018-02-08T18:26:33.399Z,85.45
2018-02-08T18:29:01.039Z,85.42
2018-02-08T18:31:28.672Z,85.93
2018-02-08T18:33:56.330Z,87.34
2018-02-08T18:36:23.922Z,86.22
2018-02-08T18:38:51.511Z,85.54
2018-02-08T18:41:19.108Z,86.23
2018-02-08T18:43:46.714Z,85.91
2018-02-08T18:46:14.303Z,85.24
2018-02-08T18:48:42.795Z,86.05
2018-02-08T18:51:10.390Z,85.93
2018-02-08T18:53:38.020Z,85.83
2018-02-08T18:56:05.651Z,86.98
2018-02-08T18:58:33.288Z,86.33
2018-02-08T19:01:00.879Z,86.24
2018-02-08T19:03:28.512Z,86.03
2018-02-08T19:05:56.106Z,85.47
2018-02-08T19:08:23.807Z,85.48
2018-02-08T19:10:51.390Z,85.32
2018-02-08T19:13:18.984Z,85.70
2018-02-08T19:15:46.678Z,85.79
2018-02-08T19:18:14.267Z,85.94
2018-02-08T19:20:41.858Z,87.45
2018-02-08T19:23:09.531Z,86.97
2018-02-08T19:25:37.119Z,87.14
2018-02-08T19:28:04.707Z,87.62
2018-02-08T19:30:32.419Z,88.00
2018-02-08T19:33:00.011Z,87.48
2018-02-08T19:35:27.599Z,88.00
2018-02-08T19:37:57.709Z,88.46
2018-02-08T19:40:25.439Z,88.22
2018-02-08T19:42:53.086Z,88.26
2018-02-08T19:45:20.728Z,88.53
2018-02-08T19:47:49.078Z,88.52
2018-02-08T19:50:19.361Z,87.42
2018-02-08T19:52:47.472Z,86.98
2018-02-08T19:55:16.117Z,85.96
2018-02-08T19:57:44.677Z,84.94
2018-02-08T20:00:13.128Z,86.42
2018-02-08T20:02:42.182Z,86.36
2018-02-08T20:05:10.753Z,85.58
2018-02-08T20:07:38.531Z,84.67
2018-02-08T20:10:06.340Z,83.99
2018-02-08T20:12:34.059Z,86.51
2018-02-08T20:15:01.770Z,87.25
2018-02-08T20:17:29.604Z,87.00
2018-02-08T20:19:57.430Z,87.23
2018-02-08T20:22:25.064Z,87.55
2018-02-08T20:24:52.787Z,88.44
2018-02-08T20:27:20.411Z,85.86
2018-02-08T20:29:48.133Z,85.93
2018-02-08T20:32:16.229Z,85.57
2018-02-08T20:34:43.982Z,84.83
2018-02-08T20:37:11.567Z,84.43
2018-02-08T20:39:39.175Z,84.79
2018-02-08T20:42:06.762Z,85.16
2018-02-08T20:44:34.413Z,87.18
2018-02-08T20:47:02.027Z,87.23
2018-02-08T20:49:29.872Z,87.67
2018-02-08T20:51:57.641Z,87.56
2018-02-08T20:54:25.588Z,88.67
2018-02-08T20:56:53.221Z,87.53
2018-02-08T20:59:20.850Z,87.77
2018-02-08T21:01:48.514Z,88.09
2018-02-08T21:04:16.183Z,88.47
2018-02-08T21:06:43.773Z,88.53
2018-02-08T21:09:11.435Z,89.05
2018-02-08T21:11:39.137Z,88.71
2018-02-08T21:14:06.922Z,89.15
2018-02-08T21:16:34.598Z,89.47
2018-02-08T21:19:02.191Z,89.67
2018-02-08T21:21:29.818Z,88.89
2018-02-08T21:23:57.487Z,88.62
2018-02-08T21:26:25.274Z,89.44
2018-02-08T21:28:52.915Z,89.92
2018-02-08T21:31:20.502Z,90.09
2018-02-08T21:33:48.105Z,90.80
2018-02-08T21:36:15.696Z,90.94
2018-02-08T21:38:43.392Z,90.59
2018-02-08T21:41:11.059Z,90.52
2018-02-08T21:43:38.682Z,90.46
2018-02-08T21:46:06.436Z,90.57
2018-02-08T21:48:34.074Z,90.46
2018-02-08T21:51:01.660Z,90.65
2018-02-08T21:53:29.368Z,90.97
2018-02-08T21:55:56.951Z,90.93
2018-02-08T21:58:24.558Z,90.61
2018-02-08T22:00:52.142Z,91.16
2018-02-08T22:03:19.815Z,90.13
2018-02-08T22:05:47.398Z,88.84
2018-02-08T22:08:15.018Z,88.62
2018-02-08T22:10:42.700Z,88.93
2018-02-08T22:13:10.295Z,89.09
2018-02-08T22:15:37.882Z,89.35
2018-02-08T22:18:05.487Z,89.31
2018-02-08T22:20:33.075Z,89.39
2018-02-08T22:23:00.714Z,89.35
2018-02-08T22:25:28.306Z,88.39
2018-02-08T22:27:55.895Z,89.66
2018-02-08T22:30:23.600Z,89.39
2018-02-08T22:32:51.743Z,88.95
2018-02-08T22:35:19.332Z,89.76
2018-02-08T22:37:46.914Z,90.63
2018-02-08T22:40:14.503Z,90.28
2018-02-08T22:42:42.123Z,89.05
2018-02-08T22:45:09.774Z,87.58
2018-02-08T22:47:37.388Z,88.81
2018-02-08T22:50:05.052Z,89.54
2018-02-08T22:52:32.639Z,89.85
2018-02-08T22:55:00.224Z,90.44
2018-02-08T22:57:27.891Z,90.80
2018-02-08T22:59:55.482Z,90.54
2018-02-08T23:02:23.067Z,89.64
2018-02-08T23:04:50.668Z,90.24
2018-02-08T23:07:18.335Z,90.70
2018-02-08T23:09:45.919Z,90.87
2018-02-08T23:12:13.508Z,90.92
2018-02-08T23:14:41.103Z,90.72
2018-02-08T23:17:08.692Z,90.90
2018-02-08T23:19:36.381Z,91.31
2018-02-08T23:22:04.007Z,91.34
2018-02-08T23:24:31.592Z,91.23
2018-02-08T23:26:59.178Z,91.13
2018-02-08T23:29:26.761Z,91.17
2018-02-08T23:31:54.355Z,91.77
2018-02-08T23:34:21.975Z,91.79
2018-02-08T23:36:49.560Z,91.94
2018-02-08T23:39:17.236Z,91.76
2018-02-08T23:41:44.950Z,92.04
2018-02-08T23:44:12.536Z,91.33
2018-02-08T23:46:40.120Z,91.98
2018-02-08T23:49:07.706Z,91.23
2018-02-08T23:51:35.292Z,91.05
2018-02-08T23:54:02.879Z,91.30
2018-02-08T23:56:30.500Z,91.41
2018-02-08T23:58:58.091Z,91.14
